Time;durP1;ratioP1;P1;durP2;ratioP2;P2;SDS_P1;SDS_P2;PMS_P1;PMS_P2;Temp;Humidity;BMP_temperature;BMP_pressure;BME280_temperature;BME280_humidity;BME280_pressure;Samples;Min_cycle;Max_cycle;Signal;HPM_P1;HPM_P2
2022/04/02 00:01:47;;;;;;;1.20;1.10;;;;;;;1.86;69.90;98438.91;8303258;28;20064;-71
2022/04/02 00:05:49;;;;;;;1.23;1.13;;;;;;;1.86;70.54;98445.72;8308069;28;20064;-71
2022/04/02 00:09:50;;;;;;;1.20;1.10;;;;;;;1.83;70.39;98450.78;8323510;28;20087;-71
2022/04/02 00:13:52;;;;;;;4.07;1.20;;;;;;;1.81;70.94;98448.22;8306838;28;20765;-71
2022/04/02 00:17:53;;;;;;;1.20;1.00;;;;;;;1.80;70.98;98436.25;8305109;28;20071;-71
2022/04/02 00:21:54;;;;;;;1.80;1.03;;;;;;;1.81;71.22;98441.41;8307950;28;20045;-71
2022/04/02 00:25:56;;;;;;;3.73;1.37;;;;;;;1.82;71.55;98460.16;8308890;28;20045;-71
2022/04/02 00:29:58;;;;;;;1.37;1.20;;;;;;;1.80;71.48;98444.78;8307771;28;20349;-71
2022/04/02 00:33:59;;;;;;;1.25;1.15;;;;;;;1.79;71.54;98457.53;8304663;28;20167;-71
2022/04/02 00:38:02;;;;;;;0.90;0.90;;;;;;;1.78;72.00;98455.81;8307505;28;20437;-71
2022/04/02 00:42:03;;;;;;;1.08;1.00;;;;;;;1.78;72.41;98445.59;8308417;28;20056;-71
2022/04/02 00:46:09;;;;;;;5.65;1.27;;;;;;;1.78;72.15;98445.59;8325501;28;20164;-71
2022/04/02 00:50:11;;;;;;;2.20;1.10;;;;;;;1.76;71.98;98447.25;8307783;28;20748;-70
2022/04/02 00:54:15;;;;;;;2.37;1.00;;;;;;;1.75;71.93;98448.97;8322783;28;20059;-71
2022/04/02 00:58:17;;;;;;;2.40;1.20;;;;;;;1.75;72.65;98448.97;8308826;28;20152;-71
2022/04/02 01:02:19;;;;;;;1.60;1.00;;;;;;;1.77;72.77;98460.06;8303680;28;20446;-71
2022/04/02 01:06:21;;;;;;;2.47;1.10;;;;;;;1.74;72.76;98460.03;8306567;28;20045;-71
2022/04/02 01:10:23;;;;;;;1.35;0.95;;;;;;;1.74;73.38;98457.47;8305239;28;20802;-71
2022/04/02 01:14:24;;;;;;;1.20;1.10;;;;;;;1.73;73.88;98466.00;8306687;28;20172;-71
2022/04/02 01:18:27;;;;;;;1.10;1.10;;;;;;;1.70;73.47;98460.84;8303869;28;20103;-71
2022/04/02 01:22:28;;;;;;;1.13;1.13;;;;;;;1.72;74.12;98454.03;8307246;28;20524;-71
2022/04/02 01:26:30;;;;;;;0.93;0.90;;;;;;;1.73;74.16;98454.91;8306975;28;20057;-71
2022/04/02 01:30:32;;;;;;;1.05;1.00;;;;;;;1.75;74.90;98451.53;8300998;28;20045;-71
2022/04/02 01:34:34;;;;;;;0.93;0.93;;;;;;;1.76;74.64;98452.38;8305263;28;20058;-71
2022/04/02 01:38:35;;;;;;;1.30;0.97;;;;;;;1.80;74.54;98454.16;8305111;28;20049;-71
2022/04/02 01:42:37;;;;;;;0.80;0.80;;;;;;;1.82;74.04;98460.16;8305067;28;20335;-71
2022/04/02 01:46:38;;;;;;;1.20;1.10;;;;;;;1.85;73.89;98455.09;8301330;28;20430;-70
2022/04/02 01:50:41;;;;;;;1.00;1.00;;;;;;;1.83;75.01;98464.44;8304005;28;20402;-70
2022/04/02 01:54:44;;;;;;;5.30;0.93;;;;;;;1.79;75.06;98466.06;8304756;28;20057;-71
2022/04/02 01:58:45;;;;;;;1.17;0.90;;;;;;;1.78;74.69;98468.63;8306010;28;20460;-71
2022/04/02 02:02:47;;;;;;;1.10;1.00;;;;;;;1.75;74.35;98469.44;8304754;28;20057;-71
2022/04/02 02:06:49;;;;;;;1.53;1.00;;;;;;;1.83;74.57;98476.38;8310900;28;20160;-71
2022/04/02 02:10:50;;;;;;;0.90;0.90;;;;;;;1.81;74.02;98476.38;8309881;28;20041;-71
2022/04/02 02:14:52;;;;;;;0.90;0.90;;;;;;;1.77;73.94;98478.00;8311840;28;20164;-71
2022/04/02 02:18:53;;;;;;;1.03;0.97;;;;;;;1.81;73.29;98476.38;8306604;28;20085;-71
2022/04/02 02:22:55;;;;;;;1.60;1.23;;;;;;;1.85;73.55;98485.81;8303290;28;20060;-71
2022/04/02 02:26:56;;;;;;;0.80;0.80;;;;;;;1.83;72.10;98492.59;8326243;28;20141;-71
2022/04/02 02:30:58;;;;;;;1.30;0.83;;;;;;;1.80;72.04;98493.41;8298877;28;20600;-71
2022/04/02 02:39:20;;;;;;;1.50;0.80;;;;;;;1.83;72.43;98495.16;8308063;28;20685;-71
2022/04/02 02:43:21;;;;;;;1.33;0.87;;;;;;;1.86;72.28;98491.78;8312680;28;20048;-71
2022/04/02 02:47:23;;;;;;;0.93;0.80;;;;;;;1.85;72.53;98496.03;8303755;28;20343;-71
2022/04/02 02:51:24;;;;;;;2.35;1.02;;;;;;;1.86;72.12;98500.31;8303756;28;20050;-70
2022/04/02 02:55:26;;;;;;;0.80;0.80;;;;;;;1.85;72.05;98497.75;8310907;28;20134;-71
2022/04/02 02:59:27;;;;;;;0.83;0.80;;;;;;;1.87;71.45;98498.63;8305015;28;20076;-71
2022/04/02 03:03:29;;;;;;;1.63;0.80;;;;;;;1.84;71.29;98503.69;8308180;28;20195;-71
2022/04/02 03:07:35;;;;;;;1.17;0.77;;;;;;;1.79;71.50;98501.91;8301129;28;20081;-71
2022/04/02 03:11:36;;;;;;;1.10;0.83;;;;;;;1.78;72.55;98507.84;8311310;28;20057;-71
2022/04/02 03:15:38;;;;;;;1.07;0.90;;;;;;;1.79;72.16;98513.84;8296220;28;20144;-70
2022/04/02 03:19:40;;;;;;;1.43;0.80;;;;;;;1.75;72.01;98514.63;8298644;28;20050;-70
2022/04/02 03:23:41;;;;;;;2.80;0.80;;;;;;;1.76;71.51;98521.47;8314029;28;20077;-70
2022/04/02 03:27:44;;;;;;;0.87;0.70;;;;;;;1.76;70.83;98522.31;8298220;28;20062;-70
2022/04/02 03:31:47;;;;;;;;;;;;;;;1.76;70.84;98521.47;8305482;28;20136;-70
2022/04/02 03:35:48;;;;;;;;;;;;;;;1.79;71.36;98522.38;8312994;28;19925;-70
2022/04/02 03:39:51;;;;;;;1.73;0.77;;;;;;;1.78;71.69;98522.34;8304655;28;19925;-71
2022/04/02 03:43:53;;;;;;;0.70;0.60;;;;;;;1.81;71.44;98530.09;8306772;28;20446;-71
2022/04/02 03:47:55;;;;;;;1.55;0.70;;;;;;;1.78;71.33;98533.44;8310894;28;20773;-70
2022/04/02 03:51:56;;;;;;;1.83;0.80;;;;;;;1.81;72.04;98538.66;8304225;28;20042;-71
2022/04/02 03:55:58;;;;;;;0.77;0.70;;;;;;;1.86;71.71;98535.28;8308971;28;20767;-71
2022/04/02 04:00:02;;;;;;;1.48;0.90;;;;;;;1.84;71.25;98539.53;8307032;28;20050;-71
2022/04/02 04:04:04;;;;;;;1.00;0.70;;;;;;;1.79;71.32;98547.09;8310104;28;20531;-71
2022/04/02 04:08:05;;;;;;;0.98;0.98;;;;;;;1.73;71.57;98557.25;8303257;28;20169;-71
2022/04/02 04:12:11;;;;;;;1.67;0.90;;;;;;;1.67;72.06;98552.03;8310109;28;20063;-71
2022/04/02 04:16:12;;;;;;;4.17;0.87;;;;;;;1.70;72.34;98554.66;8309026;28;20160;-71
2022/04/02 04:20:13;;;;;;;0.90;0.80;;;;;;;1.71;72.25;98558.91;8305590;28;20053;-71
2022/04/02 04:24:15;;;;;;;0.80;0.80;;;;;;;1.69;72.43;98558.91;8306114;28;20156;-71
2022/04/02 04:28:17;;;;;;;0.97;0.80;;;;;;;1.69;72.83;98564.00;8315194;28;20049;-71
2022/04/02 04:32:18;;;;;;;0.77;0.77;;;;;;;1.68;73.20;98569.09;8309181;28;20144;-71
2022/04/02 04:36:21;;;;;;;1.07;0.80;;;;;;;1.65;73.37;98575.03;8306863;28;20136;-71
2022/04/02 04:40:23;;;;;;;0.90;0.80;;;;;;;1.67;73.98;98575.06;8298159;28;20145;-71
2022/04/02 04:44:24;;;;;;;1.10;0.80;;;;;;;1.63;74.01;98573.28;8299209;28;20152;-72
2022/04/02 04:48:26;;;;;;;1.00;0.77;;;;;;;1.64;74.22;98578.44;8299909;28;20057;-71
2022/04/02 04:52:27;;;;;;;2.23;1.00;;;;;;;1.63;74.83;98584.38;8307330;28;20045;-71
2022/04/02 04:56:29;;;;;;;0.80;0.80;;;;;;;1.63;74.93;98589.50;8312651;28;20051;-71
2022/04/02 05:00:31;;;;;;;0.97;0.93;;;;;;;1.61;75.02;98596.25;8304909;28;20128;-72
2022/04/02 05:04:33;;;;;;;0.85;0.85;;;;;;;1.57;74.65;98594.50;8318243;28;20506;-71
2022/04/02 05:08:35;;;;;;;0.80;0.80;;;;;;;1.56;74.53;98605.56;8303673;28;20120;-71
2022/04/02 05:12:38;;;;;;;1.33;0.90;;;;;;;1.57;75.15;98603.84;8307003;28;20058;-71
2022/04/02 05:16:39;;;;;;;0.93;0.93;;;;;;;1.52;75.20;98601.22;8305166;28;20153;-71
2022/04/02 05:20:41;;;;;;;2.00;0.90;;;;;;;1.51;75.53;98609.72;8306620;28;20045;-71
2022/04/02 05:24:43;;;;;;;0.93;0.70;;;;;;;1.54;74.90;98616.59;8304746;28;20068;-71
2022/04/02 05:28:45;;;;;;;2.30;0.90;;;;;;;1.50;74.90;98618.25;8307705;28;20132;-71
2022/04/02 05:32:46;;;;;;;2.47;0.80;;;;;;;1.52;75.15;98621.69;8301859;28;20149;-71
2022/04/02 05:36:48;;;;;;;0.80;0.60;;;;;;;1.49;74.95;98630.19;8302907;28;20070;-71
2022/04/02 05:40:49;;;;;;;0.90;0.80;;;;;;;1.48;75.25;98637.81;8304363;28;20710;-71
2022/04/02 05:44:51;;;;;;;0.90;0.90;;;;;;;1.47;75.20;98641.22;8311407;28;20414;-71
2022/04/02 05:48:52;;;;;;;1.33;1.07;;;;;;;1.45;74.88;98651.41;8301897;28;20049;-71
2022/04/02 05:52:54;;;;;;;0.70;0.70;;;;;;;1.40;74.70;98653.00;8310511;28;20049;-71
2022/04/02 05:56:56;;;;;;;2.42;0.90;;;;;;;1.42;74.97;98660.69;8305150;28;20088;-71
2022/04/02 06:00:58;;;;;;;1.40;0.70;;;;;;;1.40;74.60;98659.81;8312247;28;20049;-71
2022/04/02 06:05:01;;;;;;;0.80;0.80;;;;;;;1.42;74.87;98664.13;8301675;28;20057;-71
2022/04/02 06:09:03;;;;;;;1.17;0.90;;;;;;;1.43;74.83;98672.66;8310183;28;20091;-71
2022/04/02 06:13:05;;;;;;;;;;;;;;;1.46;74.23;98677.84;8328370;28;20133;-71
2022/04/02 06:17:06;;;;;;;0.90;0.60;;;;;;;1.54;73.77;98683.97;8320665;28;19957;-71
2022/04/02 06:21:07;;;;;;;1.43;0.80;;;;;;;1.58;74.26;98687.44;8300572;28;20073;-71
2022/04/02 06:25:09;;;;;;;0.87;0.80;;;;;;;1.62;73.74;98695.25;8323247;28;20050;-72
2022/04/02 06:29:11;;;;;;;0.88;0.82;;;;;;;1.61;73.76;98690.91;8318180;28;20850;-72
2022/04/02 06:33:13;;;;;;;0.80;0.80;;;;;;;1.67;74.15;98703.00;8309070;28;20551;-73
2022/04/02 06:37:15;;;;;;;1.00;0.88;;;;;;;1.71;73.61;98703.06;8314254;28;20092;-71
2022/04/02 06:41:17;;;;;;;0.97;0.83;;;;;;;1.75;73.53;98707.41;8312191;28;20156;-71
2022/04/02 06:45:18;;;;;;;0.80;0.80;;;;;;;1.75;72.72;98717.66;8308985;28;20148;-71
2022/04/02 06:49:20;;;;;;;0.90;0.77;;;;;;;1.73;72.50;98716.75;8313396;28;20457;-71
2022/04/02 06:53:21;;;;;;;1.00;1.00;;;;;;;1.75;71.85;98714.22;8310574;28;20045;-71
2022/04/02 06:57:23;;;;;;;2.40;0.80;;;;;;;1.83;71.56;98725.50;8312831;28;20444;-72
2022/04/02 07:01:24;;;;;;;4.43;0.98;;;;;;;1.89;71.73;98727.31;8306438;28;20148;-72
2022/04/02 07:05:26;;;;;;;2.23;0.80;;;;;;;1.91;71.80;98734.19;8312919;28;20057;-73
2022/04/02 07:09:28;;;;;;;1.00;0.87;;;;;;;2.02;71.70;98744.63;8312846;28;20053;-73
2022/04/02 07:13:29;;;;;;;0.93;0.80;;;;;;;2.03;71.08;98749.78;8312527;28;20058;-73
2022/04/02 07:17:37;;;;;;;1.20;1.10;;;;;;;2.06;71.31;98760.06;8324111;28;20757;-72
2022/04/02 07:21:41;;;;;;;1.57;0.80;;;;;;;2.10;71.26;98758.44;8310190;28;20131;-73
2022/04/02 07:25:43;;;;;;;1.30;1.00;;;;;;;2.17;70.39;98760.28;8310186;28;20057;-73
2022/04/02 07:29:45;;;;;;;3.65;0.90;;;;;;;2.22;71.38;98768.91;8308840;28;20460;-73
2022/04/02 07:33:47;;;;;;;0.80;0.80;;;;;;;2.43;71.34;98768.44;8307101;28;20049;-73
2022/04/02 07:38:12;;;;;;;1.30;0.95;;;;;;;2.51;70.37;98783.94;8307641;28;20693;-73
2022/04/02 07:42:26;;;;;;;1.17;1.07;;;;;;;2.58;71.28;98791.75;8311833;28;20090;-74
2022/04/02 07:46:33;;;;;;;1.63;0.70;;;;;;;2.69;70.29;98795.38;8307961;28;20099;-73
2022/04/02 07:50:34;;;;;;;0.70;0.70;;;;;;;2.81;70.49;98796.41;8310136;28;20148;-72
2022/04/02 07:54:42;;;;;;;1.40;0.70;;;;;;;2.88;70.36;98796.56;8308427;28;20506;-73
2022/04/02 07:58:51;;;;;;;0.77;0.77;;;;;;;3.00;69.60;98817.25;8307958;28;20298;-73
2022/04/02 08:02:53;;;;;;;1.87;0.80;;;;;;;3.04;70.08;98807.91;8302424;28;20432;-73
2022/04/02 08:06:54;;;;;;;1.10;0.87;;;;;;;3.07;69.27;98822.50;8304898;28;20057;-72
2022/04/02 08:10:56;;;;;;;0.80;0.80;;;;;;;3.03;68.14;98827.56;8308445;28;20152;-72
2022/04/02 08:14:58;;;;;;;0.80;0.68;;;;;;;3.04;67.90;98836.09;8307818;28;20057;-73
2022/04/02 08:19:02;;;;;;;4.10;0.80;;;;;;;3.10;68.26;98835.38;8303622;28;20446;-73
2022/04/02 08:23:04;;;;;;;0.90;0.70;;;;;;;3.08;67.69;98837.03;8299385;28;20111;-73
2022/04/02 08:27:15;;;;;;;1.73;0.60;;;;;;;3.04;67.67;98842.09;8304383;28;20060;-72
2022/04/02 08:31:44;;;;;;;1.30;0.70;;;;;;;3.08;67.23;98847.31;8294067;28;20057;-73
2022/04/02 08:36:07;;;;;;;1.57;0.87;;;;;;;3.10;66.37;98850.75;8302265;28;20064;-73
2022/04/02 08:40:20;;;;;;;0.90;0.90;;;;;;;3.14;66.74;98858.50;8290879;28;20068;-72
2022/04/02 08:44:40;;;;;;;;;;;;;;;3.16;66.46;98863.66;8295731;28;20136;-72
2022/04/02 08:48:58;;;;;;;2.50;0.67;;;;;;;3.10;66.28;98864.44;8319106;28;20628;-73
2022/04/02 08:53:43;;;;;;;2.07;0.77;;;;;;;3.07;67.05;98884.91;8301993;28;20063;-73
2022/04/02 08:57:54;;;;;;;1.57;0.80;;;;;;;3.19;67.36;98885.09;8288461;28;20068;-72
2022/04/02 09:02:05;;;;;;;1.10;0.90;;;;;;;3.12;65.95;98897.81;8287850;28;20057;-72
2022/04/02 09:06:30;;;;;;;1.77;0.60;;;;;;;3.05;65.66;98904.50;8313546;28;20085;-72
2022/04/02 09:10:43;;;;;;;0.63;0.50;;;;;;;3.14;65.12;98903.81;8300626;28;20071;-71
2022/04/02 09:15:08;;;;;;;1.63;0.80;;;;;;;3.25;65.37;98899.75;8304830;28;20140;-72
2022/04/02 09:19:44;;;;;;;0.83;0.70;;;;;;;3.43;64.79;98905.19;8302211;28;20070;-72
2022/04/02 09:24:10;;;;;;;0.83;0.70;;;;;;;3.63;64.92;98916.63;8302943;28;21706;-73
2022/04/02 09:28:33;;;;;;;0.70;0.70;;;;;;;3.67;64.71;98912.38;8303055;28;20366;-72
2022/04/02 09:32:46;;;;;;;0.90;0.70;;;;;;;3.89;65.48;98911.00;8299077;28;20053;-73
2022/04/02 09:37:22;;;;;;;0.97;0.90;;;;;;;4.05;65.35;98918.06;8317694;28;20060;-73
2022/04/02 09:41:24;;;;;;;0.63;0.63;;;;;;;4.16;64.38;98923.38;8302187;28;20049;-73
2022/04/02 09:45:38;;;;;;;0.73;0.73;;;;;;;4.21;64.37;98924.28;8298228;28;20059;-73
2022/04/02 09:50:06;;;;;;;0.90;0.70;;;;;;;4.18;63.05;98932.81;8302782;28;20222;-73
2022/04/02 09:54:27;;;;;;;1.20;0.90;;;;;;;4.10;62.48;98938.69;8299267;28;20736;-73
2022/04/02 09:59:01;;;;;;;1.17;0.63;;;;;;;4.12;62.83;98929.28;8287130;28;20053;-73
2022/04/02 10:03:08;;;;;;;1.00;0.60;;;;;;;4.18;62.58;98935.41;8314765;28;20061;-73
2022/04/02 10:07:35;;;;;;;0.80;0.80;;;;;;;4.11;62.09;98950.69;8302600;28;20055;-72
2022/04/02 10:11:56;;;;;;;0.90;0.60;;;;;;;4.14;61.76;98948.19;8274583;28;20594;-73
2022/04/02 10:15:59;;;;;;;2.63;0.60;;;;;;;4.40;62.79;98948.53;8295106;28;20060;-73
2022/04/02 10:20:00;;;;;;;;;;;;;;;4.59;62.43;98944.47;8292983;28;20525;-73
2022/04/02 10:24:20;;;;;;;0.70;0.70;;;;;;;4.66;62.40;98949.69;8290882;28;20253;-73
2022/04/02 10:28:30;;;;;;;1.03;0.57;;;;;;;4.71;62.17;98950.63;8292250;28;20481;-73
2022/04/02 10:32:57;;;;;;;0.50;0.50;;;;;;;4.66;61.01;98964.25;8289145;28;20530;-73
2022/04/02 10:37:08;;;;;;;7.87;1.20;;;;;;;4.69;60.38;98961.75;8293420;28;20053;-73
2022/04/02 10:41:17;;;;;;;1.97;0.57;;;;;;;4.62;59.84;98962.50;8293749;28;20147;-73
2022/04/02 10:45:20;;;;;;;1.50;0.93;;;;;;;4.74;61.03;98967.81;8291455;28;20053;-73
2022/04/02 10:49:32;;;;;;;3.37;1.50;;;;;;;4.88;61.09;98960.25;8300552;28;20053;-73
2022/04/02 10:53:41;;;;;;;3.83;2.60;;;;;;;4.97;59.76;98963.78;8300614;28;20050;-73
2022/04/02 10:57:44;;;;;;;3.40;1.93;;;;;;;5.12;60.37;98957.94;8294494;28;20144;-73
2022/04/02 11:01:49;;;;;;;4.67;1.30;;;;;;;5.13;59.58;98967.38;8291117;28;20585;-73
2022/04/02 11:05:51;;;;;;;0.93;0.90;;;;;;;5.30;59.07;98964.97;8298409;28;20049;-73
2022/04/02 11:09:53;;;;;;;1.63;1.53;;;;;;;5.43;59.33;98969.41;8301267;28;20421;-73
2022/04/02 11:14:02;;;;;;;3.17;2.35;;;;;;;5.43;59.78;98977.13;8304923;28;20046;-73
2022/04/02 11:18:04;;;;;;;2.37;1.50;;;;;;;5.40;60.35;98977.09;8304542;28;20152;-71
2022/04/02 11:22:14;;;;;;;1.30;1.00;;;;;;;5.30;58.20;98998.44;8306391;28;20049;-72
2022/04/02 11:26:20;;;;;;;0.80;0.80;;;;;;;4.92;58.76;98987.72;8305384;28;20140;-73
2022/04/02 11:30:29;;;;;;;0.70;0.70;;;;;;;4.73;60.27;98987.50;8303570;28;21013;-73
2022/04/02 11:34:36;;;;;;;1.30;1.20;;;;;;;4.78;60.93;98995.28;8307763;28;20152;-72
2022/04/02 11:38:58;;;;;;;1.07;0.80;;;;;;;4.88;60.51;98991.97;8307407;28;20736;-73
2022/04/02 11:43:02;;;;;;;1.00;0.80;;;;;;;5.03;60.36;99004.16;8307771;28;20175;-74
2022/04/02 11:47:05;;;;;;;1.47;0.90;;;;;;;5.09;60.60;98999.94;8300246;28;20057;-72
2022/04/02 11:51:13;;;;;;;1.03;0.77;;;;;;;4.97;60.67;99012.66;8297576;28;20141;-73
2022/04/02 11:55:14;;;;;;;1.67;0.90;;;;;;;4.91;61.00;99011.72;8322218;28;20046;-73
2022/04/02 11:59:17;;;;;;;1.00;0.70;;;;;;;4.83;59.64;99022.78;8304773;28;20049;-73
2022/04/02 12:03:23;;;;;;;;;;;;;;;4.90;59.65;99016.00;8300511;28;20045;-73
2022/04/02 12:07:25;;;;;;;0.67;0.57;;;;;;;4.97;58.44;99015.22;8305380;28;19999;-73
2022/04/02 12:11:28;;;;;;;;;;;;;;;5.03;58.29;99017.91;8304589;28;20120;-73
2022/04/02 12:15:30;;;;;;;0.45;0.45;;;;;;;5.11;57.75;99016.25;8293160;28;19936;-73
2022/04/02 12:19:37;;;;;;;0.70;0.70;;;;;;;5.06;56.71;99014.50;8296683;28;20607;-73
2022/04/02 12:23:38;;;;;;;0.70;0.67;;;;;;;5.13;58.08;99018.84;8293852;28;20484;-74
2022/04/02 12:27:49;;;;;;;2.10;0.80;;;;;;;5.11;56.48;98999.97;8292245;28;20139;-73
2022/04/02 12:31:53;;;;;;;0.67;0.67;;;;;;;4.97;55.63;99022.94;8290443;28;20045;-73
2022/04/02 12:35:58;;;;;;;2.03;0.77;;;;;;;4.83;55.82;99033.06;8294407;28;20729;-73
2022/04/02 12:40:17;;;;;;;2.00;1.00;;;;;;;4.90;57.24;99035.72;8297926;28;20523;-74
2022/04/02 12:44:21;;;;;;;0.77;0.57;;;;;;;5.07;56.06;99035.09;8318831;28;20200;-73
2022/04/02 12:48:24;;;;;;;0.70;0.70;;;;;;;5.19;55.07;99044.63;8301806;28;20699;-73
2022/04/02 12:52:26;;;;;;;1.63;0.80;;;;;;;5.23;55.19;99041.28;8304319;28;20133;-73
2022/04/02 12:56:30;;;;;;;0.90;0.80;;;;;;;5.36;55.55;99040.53;8303406;28;20060;-73
2022/04/02 13:00:44;;;;;;;1.00;0.80;;;;;;;5.36;54.55;99042.25;8299575;28;20055;-73
2022/04/02 13:04:54;;;;;;;1.00;0.90;;;;;;;5.27;54.56;99052.47;8305274;28;20068;-73
2022/04/02 13:09:01;;;;;;;0.97;0.97;;;;;;;5.10;54.32;99055.72;8303795;28;20447;-73
2022/04/02 13:13:04;;;;;;;0.90;0.70;;;;;;;4.85;54.79;99063.97;8302509;28;20045;-73
2022/04/02 13:17:07;;;;;;;1.00;1.00;;;;;;;4.69;56.43;99064.59;8300791;28;20057;-74
2022/04/02 13:21:09;;;;;;;1.83;1.10;;;;;;;4.77;57.26;99057.84;8304099;28;20049;-73
2022/04/02 13:25:15;;;;;;;3.10;0.90;;;;;;;4.93;58.00;99057.22;8305151;28;20153;-73
2022/04/02 13:29:35;;;;;;;1.00;0.90;;;;;;;4.93;55.81;99066.63;8304687;28;20826;-73
2022/04/02 13:33:43;;;;;;;3.80;0.70;;;;;;;4.82;55.83;99069.91;8302275;28;20057;-73
2022/04/02 13:38:07;;;;;;;4.50;0.90;;;;;;;4.71;56.70;99079.22;8305021;28;20096;-73
2022/04/02 13:42:18;;;;;;;1.50;0.80;;;;;;;4.59;56.62;99086.75;8304946;28;20054;-73
2022/04/02 13:46:25;;;;;;;0.97;0.90;;;;;;;4.57;58.14;99083.28;8302375;28;20738;-73
2022/04/02 13:50:28;;;;;;;2.00;0.97;;;;;;;4.48;56.85;99091.72;8306067;28;20055;-73
2022/04/02 13:54:34;;;;;;;;;;;;;;;4.50;56.62;99091.78;8298064;28;20064;-73
2022/04/02 13:58:45;;;;;;;1.03;0.80;;;;;;;4.48;56.43;99102.00;8296820;28;19925;-73
2022/04/02 14:02:46;;;;;;;1.10;1.00;;;;;;;4.48;56.84;99102.00;8293960;28;20422;-73
2022/04/02 14:06:54;;;;;;;1.10;0.83;;;;;;;4.47;56.57;99101.97;8293080;28;20448;-73
2022/04/02 14:10:59;;;;;;;2.50;1.10;;;;;;;4.40;57.11;99102.75;8295437;28;20047;-73
2022/04/02 14:15:11;;;;;;;7.63;3.47;;;;;;;4.46;58.63;99116.53;8294801;28;20045;-73
2022/04/02 14:19:16;;;;;;;4.37;1.87;;;;;;;4.43;59.76;99118.19;8294345;28;20061;-73
2022/04/02 14:23:21;;;;;;;1.53;1.43;;;;;;;4.22;60.96;99136.72;8291908;28;20283;-73
2022/04/02 14:27:34;;;;;;;0.97;0.97;;;;;;;4.07;62.50;99133.88;8293058;28;20160;-73
2022/04/02 14:32:07;;;;;;;1.53;1.17;;;;;;;4.02;64.42;99143.22;8287490;28;20545;-73
2022/04/02 14:36:40;;;;;;;1.52;1.08;;;;;;;3.90;65.68;99142.16;8301443;28;20054;-74
2022/04/02 14:40:57;;;;;;;1.30;1.17;;;;;;;3.85;67.10;99148.06;8292299;28;20053;-73
2022/04/02 14:45:01;;;;;;;1.30;1.20;;;;;;;3.87;66.47;99151.50;8295972;28;21426;-73
2022/04/02 14:49:40;;;;;;;1.50;1.20;;;;;;;4.06;65.82;99156.13;8296606;28;20057;-72
2022/04/02 14:54:04;;;;;;;2.10;1.20;;;;;;;4.15;64.27;99151.19;8297344;28;20061;-73
2022/04/02 14:58:11;;;;;;;1.30;1.20;;;;;;;4.21;63.59;99153.84;8297359;28;20083;-73
2022/04/02 15:02:16;;;;;;;2.77;1.57;;;;;;;4.28;62.83;99162.50;8309696;28;20069;-73
2022/04/02 15:07:05;;;;;;;3.13;1.30;;;;;;;4.35;62.39;99163.50;8296438;28;20049;-73
2022/04/02 15:11:12;;;;;;;2.67;1.47;;;;;;;4.37;61.68;99162.69;8298986;28;20058;-73
2022/04/02 15:15:20;;;;;;;2.03;1.20;;;;;;;4.32;61.39;99158.31;8296835;28;20061;-73
2022/04/02 15:19:27;;;;;;;2.17;1.30;;;;;;;4.27;61.53;99165.06;8300106;28;20058;-73
2022/04/02 15:23:28;;;;;;;1.23;1.13;;;;;;;4.22;61.78;99168.41;8303034;28;20049;-73
2022/04/02 15:27:56;;;;;;;2.07;1.00;;;;;;;4.20;62.78;99171.81;8304576;28;20053;-72
2022/04/02 15:32:10;;;;;;;1.67;1.10;;;;;;;4.33;63.18;99178.03;8317896;28;20395;-72
2022/04/02 15:36:14;;;;;;;1.20;1.10;;;;;;;4.36;62.71;99173.78;8316916;28;20059;-72
2022/04/02 15:40:48;;;;;;;1.10;1.00;;;;;;;4.28;62.06;99182.19;8304769;28;20111;-72
2022/04/02 15:45:04;;;;;;;2.00;1.10;;;;;;;4.24;62.37;99189.00;8303882;28;20119;-72
2022/04/02 15:49:06;;;;;;;1.10;1.00;;;;;;;4.22;62.22;99193.25;8307296;28;20057;-72
2022/04/02 15:53:10;;;;;;;1.20;1.10;;;;;;;4.24;61.63;99197.56;8304942;28;20049;-72
2022/04/02 15:57:13;;;;;;;1.60;1.20;;;;;;;4.24;60.70;99196.72;8306630;28;20524;-72
2022/04/02 16:01:38;;;;;;;1.67;1.20;;;;;;;4.29;61.20;99204.50;8302415;28;20157;-72
2022/04/02 16:05:40;;;;;;;2.27;1.40;;;;;;;4.25;62.00;99201.00;8300597;28;20041;-72
2022/04/02 16:10:14;;;;;;;1.40;1.30;;;;;;;4.14;62.94;99205.97;8320861;28;20656;-72
2022/04/02 16:14:17;;;;;;;1.97;1.13;;;;;;;4.07;63.68;99210.94;8298707;28;20045;-76
2022/04/02 16:18:21;;;;;;;1.53;1.10;;;;;;;4.02;63.63;99218.59;8292939;28;20696;-74
2022/04/02 16:22:27;;;;;;;2.20;1.30;;;;;;;3.97;64.13;99217.63;8296032;28;20069;-73
2022/04/02 16:26:29;;;;;;;1.37;1.17;;;;;;;3.89;64.69;99217.47;8296019;28;20084;-73
2022/04/02 16:30:30;;;;;;;4.03;1.30;;;;;;;3.83;64.37;99219.06;8293455;28;20057;-73
2022/04/02 16:34:34;;;;;;;1.63;1.30;;;;;;;3.73;63.97;99233.41;8303355;28;20045;-73
2022/04/02 16:38:50;;;;;;;1.00;0.90;;;;;;;3.75;64.41;99233.44;8304228;28;20049;-74
2022/04/02 16:43:03;;;;;;;2.23;1.20;;;;;;;3.75;63.67;99242.00;8304038;28;20601;-73
2022/04/02 16:47:06;;;;;;;2.40;1.30;;;;;;;3.78;63.47;99247.22;8295156;28;20064;-73
2022/04/02 16:51:10;;;;;;;1.10;1.00;;;;;;;3.77;62.56;99242.03;8292210;28;20053;-73
2022/04/02 16:55:16;;;;;;;3.93;1.83;;;;;;;3.74;61.67;99255.69;8293058;28;20063;-73
2022/04/02 16:59:18;;;;;;;1.10;1.03;;;;;;;3.69;60.38;99262.44;8298594;28;20048;-74
2022/04/02 17:03:29;;;;;;;1.33;1.07;;;;;;;3.72;60.73;99264.19;8314757;28;20103;-73
2022/04/02 17:07:32;;;;;;;1.53;1.10;;;;;;;3.64;61.08;99280.31;8303479;28;20198;-73
2022/04/02 17:11:43;;;;;;;;;;;;;;;3.64;61.07;99280.31;8291888;28;20072;-73
2022/04/02 17:16:17;;;;;;;2.13;1.47;;;;;;;3.56;60.85;99279.28;8285972;28;19972;-73
2022/04/02 17:20:29;;;;;;;4.27;1.30;;;;;;;3.56;60.41;99281.84;8264657;28;20119;-73
2022/04/02 17:24:31;;;;;;;3.72;1.50;;;;;;;3.51;60.11;99292.84;8303074;28;20487;-73
2022/04/02 17:28:41;;;;;;;2.47;1.02;;;;;;;3.46;58.87;99297.03;8301873;28;20118;-73
2022/04/02 17:32:43;;;;;;;2.07;1.20;;;;;;;3.46;58.71;99307.28;8298029;28;20711;-73
2022/04/02 17:36:50;;;;;;;0.93;0.93;;;;;;;3.42;58.47;99297.78;8299722;28;20798;-73
2022/04/02 17:40:53;;;;;;;1.20;0.90;;;;;;;3.37;58.27;99297.66;8302000;28;20362;-73
2022/04/02 17:45:33;;;;;;;1.57;0.90;;;;;;;3.30;58.28;99313.75;8303073;28;20703;-73
2022/04/02 17:49:42;;;;;;;1.20;1.10;;;;;;;3.28;58.93;99318.88;8303900;28;20555;-73
2022/04/02 17:53:44;;;;;;;2.07;1.20;;;;;;;3.23;58.67;99317.91;8303618;28;20060;-73
2022/04/02 17:58:21;;;;;;;1.20;1.10;;;;;;;3.20;58.46;99319.50;8303625;28;20053;-73
2022/04/02 18:02:22;;;;;;;1.20;1.10;;;;;;;3.20;58.33;99328.06;8289199;28;20478;-73
2022/04/02 18:06:28;;;;;;;2.13;1.50;;;;;;;3.19;58.68;99340.84;8304612;28;20056;-74
2022/04/02 18:10:29;;;;;;;3.50;1.87;;;;;;;3.13;58.92;99346.72;8305059;28;20057;-73
2022/04/02 18:14:31;;;;;;;1.42;1.10;;;;;;;3.07;59.62;99346.56;8305223;28;21532;-73
2022/04/02 18:18:34;;;;;;;1.93;1.30;;;;;;;3.03;58.43;99358.44;8301087;28;20575;-73
2022/04/02 18:22:39;;;;;;;1.20;1.10;;;;;;;2.99;58.78;99364.31;8322627;28;21071;-73
2022/04/02 18:26:40;;;;;;;1.93;1.70;;;;;;;2.97;58.40;99371.13;8292034;28;20045;-73
2022/04/02 18:30:41;;;;;;;1.80;1.30;;;;;;;2.92;58.16;99375.28;8292355;28;20056;-72
2022/04/02 18:34:43;;;;;;;1.63;1.53;;;;;;;2.88;58.71;99373.47;8299215;28;20067;-73
2022/04/02 18:38:44;;;;;;;2.93;1.40;;;;;;;2.89;59.02;99390.59;8299646;28;20159;-73
2022/04/02 18:42:46;;;;;;;1.40;1.30;;;;;;;2.86;58.68;99393.03;8300918;28;20045;-76
2022/04/02 18:46:48;;;;;;;2.33;1.17;;;;;;;2.88;58.82;99399.09;8296422;28;20053;-73
2022/04/02 18:50:49;;;;;;;3.20;1.10;;;;;;;2.86;59.63;99400.72;8299722;28;20049;-73
2022/04/02 18:54:51;;;;;;;1.37;1.10;;;;;;;2.86;59.67;99410.13;8299309;28;20072;-72
2022/04/02 18:58:52;;;;;;;1.30;1.17;;;;;;;2.84;59.56;99411.78;8298074;28;20095;-72
2022/04/02 19:02:53;;;;;;;2.10;1.30;;;;;;;2.82;60.31;99421.13;8294325;28;20069;-72
2022/04/02 19:06:56;;;;;;;1.47;1.30;;;;;;;2.76;60.52;99428.66;8299169;28;20053;-72
2022/04/02 19:10:57;;;;;;;2.25;1.17;;;;;;;2.70;60.78;99437.94;8296855;28;20049;-72
2022/04/02 19:14:59;;;;;;;1.67;1.27;;;;;;;2.66;60.94;99443.78;8298401;28;20045;-72
2022/04/02 19:19:00;;;;;;;1.83;1.03;;;;;;;2.60;60.85;99442.75;8296911;28;20457;-72
2022/04/02 19:23:02;;;;;;;1.10;1.00;;;;;;;2.57;60.67;99450.34;8299865;28;20052;-72
2022/04/02 19:27:03;;;;;;;1.43;1.17;;;;;;;2.52;61.38;99452.81;8299896;28;20679;-72
2022/04/02 19:31:05;;;;;;;1.10;1.00;;;;;;;2.50;61.59;99463.81;8294989;28;21679;-72
2022/04/02 19:35:07;;;;;;;2.93;1.13;;;;;;;2.50;61.54;99464.66;8293949;28;20057;-72
2022/04/02 19:39:29;;;;;;;0.98;0.90;;;;;;;2.52;62.17;99477.56;8297376;28;20144;-72
2022/04/02 19:43:31;;;;;;;1.50;1.23;;;;;;;2.51;62.41;99466.41;8299815;28;20042;-72